หน้าหลัก
METAR-TAF:

METAR-TAF

ท่าอากาศยาน :

Jönköping, สวีเดน

ละติจูด: 57-46N, ลองจิจูด: 014-05E, ความสูง: 226 ม.

การสังเกตสภาพอากาศปัจจุบัน

รายงานได้ทำขึ้นเมื่อ 35 นาทีที่แล้ว ณ เวลา 00:50 UTC
ลม 6 นอตจากเหนือ
อุณหภูมิ 14°C
ความชื้น 94%
ความกดอากาศ 1013 hPa
ทัศนวิสัย 10 กม. หรือมากกว่า

METAR: ESGJ 130050Z AUTO 01006KT 9999 NCD 14/13 Q1013

เวลา: 03:25 (01:25 UTC)

การพยากรณ์

รายงานได้ทำขึ้นเมื่อ 13 ชั่วโมงและ 55 นาทีที่แล้ว ณ เวลา 11:30 UTC
การพยากรณ์มีผลตั้งแต่วันที่ 12 ณ เวลา 12 UTC จนถึงวันที่ 12 ณ เวลา 14 UTC
ลม 3 นอตจากทิศทางซึ่งแปรผันได้
ทัศนวิสัย 10 กม. หรือมากกว่า
มีเมฆกระจายเป็นบางส่วนที่ความสูง 2000 ฟุต
ความน่าจะเป็น 40%
ตั้งแต่วันที่ 12 ณ เวลา 12 UTC จนถึงวันที่ 12 ณ เวลา 14 UTC
มีเมฆกระจายเป็นบางส่วนที่ความสูง 2500 ฟุต, คิวมูลัสที่ก่อตัวขึ้นสูง.

TAF: ESGJ 121130Z 1212/1214 VRB03KT 9999 SCT020 PROB40 1212/1214 SCT025TCU

สังเกตการณ์สภาพอากาศและพยากรณ์อากาศของสนามบินมากกว่า 4000 แห่ง (รายงาน METAR และ TAF).

สถานีที่ดูได้จะแสดงไว้ด้วยจุดสีเหลืองและสีแดงบนแผนที่.

เลื่อนเมาส์ไปเหนือจุดเพื่อดูชื่อสถานี.

แล้วคลิกเพื่อดูสังเกตการณ์และการพยากรณ์สภาพอากาศ.

ในการเปลี่ยนแผนที่: คลิกที่ปุ่มสีเขียวที่มีกากบาทสีดำเพื่อซูมเข้า; ที่ปุ่มสีเขียวที่มีขีดเพื่อซูมออก; หรือที่ลูกศรสีเขียวเพื่อไปยังแผนที่ที่อยู่ติดกัน.


METAR-TAF: